createdAt,value
2023-03-06T00:01:38.204Z,100156.78
2023-03-06T00:04:08.198Z,100163.28
2023-03-06T00:06:35.608Z,100166.97
2023-03-06T00:09:02.976Z,100162.16
2023-03-06T00:11:30.272Z,100154.81
2023-03-06T00:13:57.691Z,100158.81
2023-03-06T00:16:25.773Z,100159.00
2023-03-06T00:18:53.075Z,100156.91
2023-03-06T00:21:21.839Z,100156.59
2023-03-06T00:23:49.174Z,100147.31
2023-03-06T00:26:16.561Z,100152.44
2023-03-06T00:28:43.890Z,100152.75
2023-03-06T00:31:13.555Z,100158.34
2023-03-06T00:33:40.891Z,100145.72
2023-03-06T00:36:08.453Z,100142.22
2023-03-06T00:38:37.277Z,100147.97
2023-03-06T00:41:09.307Z,100153.38
2023-03-06T00:43:37.875Z,100149.03
2023-03-06T00:46:05.825Z,100134.69
2023-03-06T00:48:34.122Z,100142.22
2023-03-06T00:51:01.818Z,100131.53
2023-03-06T00:53:29.084Z,100132.66
2023-03-06T00:55:56.423Z,100132.19
2023-03-06T00:58:23.765Z,100134.41
2023-03-06T01:00:51.423Z,100111.47
2023-03-06T01:03:18.787Z,100118.94
2023-03-06T01:05:46.242Z,100116.69
2023-03-06T01:08:13.579Z,100110.34
2023-03-06T01:10:41.040Z,100109.88
2023-03-06T01:13:09.767Z,100101.59
2023-03-06T01:15:37.069Z,100107.97
2023-03-06T01:18:04.575Z,100102.84
2023-03-06T01:20:32.128Z,100101.75
2023-03-06T01:22:59.478Z,100095.53
2023-03-06T01:25:28.669Z,100091.22
2023-03-06T01:27:58.715Z,100083.41
2023-03-06T01:30:26.048Z,100084.34
2023-03-06T01:32:53.353Z,100085.63
2023-03-06T01:35:20.743Z,100081.66
2023-03-06T01:37:48.147Z,100081.81
2023-03-06T01:40:15.703Z,100077.50
2023-03-06T01:42:43.082Z,100077.19
2023-03-06T01:45:13.421Z,100074.78
2023-03-06T01:47:40.912Z,100066.19
2023-03-06T01:50:10.875Z,100072.56
2023-03-06T01:52:47.950Z,100070.31
2023-03-06T01:55:21.047Z,100066.19
2023-03-06T01:57:55.159Z,100065.06
2023-03-06T02:00:25.356Z,100067.47
2023-03-06T02:02:55.742Z,100061.25
2023-03-06T02:05:23.564Z,100063.47
2023-03-06T02:07:51.913Z,100062.50
2023-03-06T02:10:20.607Z,100072.72
2023-03-06T02:12:50.314Z,100065.06
2023-03-06T02:15:22.205Z,100063.47
2023-03-06T02:17:51.257Z,100059.81
2023-03-06T02:20:33.739Z,100064.09
2023-03-06T02:23:16.745Z,100059.19
2023-03-06T02:25:48.428Z,100058.06
2023-03-06T02:28:18.782Z,100061.56
2023-03-06T02:30:48.662Z,100061.56
2023-03-06T02:33:23.139Z,100058.84
2023-03-06T02:35:55.798Z,100056.47
2023-03-06T02:38:28.993Z,100053.13
2023-03-06T02:40:58.145Z,100057.13
2023-03-06T02:43:34.552Z,100049.78
2023-03-06T02:46:03.012Z,100063.66
2023-03-06T02:48:30.303Z,100053.13
2023-03-06T02:50:57.922Z,100052.81
2023-03-06T02:53:26.409Z,100057.59
2023-03-06T02:55:54.503Z,100046.28
2023-03-06T02:58:21.872Z,100041.97
2023-03-06T03:00:49.676Z,100051.38
2023-03-06T03:03:17.966Z,100039.25
2023-03-06T03:05:45.276Z,100032.69
2023-03-06T03:08:20.140Z,100037.78
2023-03-06T03:10:49.223Z,100036.84
2023-03-06T03:13:16.654Z,100036.84
2023-03-06T03:15:46.706Z,100045.75
2023-03-06T03:18:14.087Z,100036.53
2023-03-06T03:20:43.849Z,100030.44
2023-03-06T03:23:11.225Z,100034.91
2023-03-06T03:25:38.594Z,100032.69
2023-03-06T03:28:06.155Z,100039.38
2023-03-06T03:30:33.638Z,100034.63
2023-03-06T03:33:01.384Z,100042.25
2023-03-06T03:35:28.921Z,100038.13
2023-03-06T03:37:57.109Z,100036.25
2023-03-06T03:40:24.772Z,100037.03
2023-03-06T03:42:52.380Z,100038.78
2023-03-06T03:45:20.809Z,100034.78
2023-03-06T03:47:48.312Z,100032.91
2023-03-06T03:50:15.960Z,100036.88
2023-03-06T03:52:43.812Z,100030.50
2023-03-06T03:55:12.763Z,100027.28
2023-03-06T03:57:43.121Z,100034.28
2023-03-06T04:00:16.046Z,100037.66
2023-03-06T04:02:57.475Z,100033.03
2023-03-06T04:05:35.956Z,100031.75
2023-03-06T04:08:05.740Z,100036.53
2023-03-06T04:10:35.060Z,100033.81
2023-03-06T04:13:03.445Z,100037.16
2023-03-06T04:15:31.971Z,100023.59
2023-03-06T04:18:00.967Z,100032.19
2023-03-06T04:20:30.589Z,100024.69
2023-03-06T04:23:00.247Z,100017.22
2023-03-06T04:25:27.894Z,100020.56
2023-03-06T04:27:55.361Z,100017.38
2023-03-06T04:30:25.585Z,100011.47
2023-03-06T04:32:53.105Z,100006.66
2023-03-06T04:35:20.678Z,100013.69
2023-03-06T04:37:56.379Z,100025.97
2023-03-06T04:40:28.716Z,100018.97
2023-03-06T04:42:58.363Z,100012.25
2023-03-06T04:45:27.210Z,100017.66
2023-03-06T04:47:55.144Z,100013.19
2023-03-06T04:50:24.035Z,100021.06
2023-03-06T04:52:51.836Z,100022.63
2023-03-06T04:55:19.891Z,100023.44
2023-03-06T04:57:47.880Z,100011.13
2023-03-06T05:00:22.200Z,100009.88
2023-03-06T05:02:51.120Z,100013.84
2023-03-06T05:05:19.375Z,100008.75
2023-03-06T05:07:47.163Z,99992.81
2023-03-06T05:10:16.687Z,99996.31
2023-03-06T05:12:44.829Z,99996.19
2023-03-06T05:15:13.196Z,99992.69
2023-03-06T05:17:40.652Z,99989.03
2023-03-06T05:20:10.300Z,99986.66
2023-03-06T05:22:38.033Z,100000.81
2023-03-06T05:25:06.473Z,99999.22
2023-03-06T05:27:34.335Z,99996.84
2023-03-06T05:30:01.789Z,99998.75
2023-03-06T05:32:29.414Z,99992.56
2023-03-06T05:34:56.745Z,100000.53
2023-03-06T05:37:24.384Z,99992.09
2023-03-06T05:39:51.918Z,99993.03
2023-03-06T05:42:21.936Z,99989.03
2023-03-06T05:44:49.361Z,99988.25
2023-03-06T05:47:16.783Z,99993.84
2023-03-06T05:49:44.108Z,99990.63
2023-03-06T05:52:13.114Z,99998.13
2023-03-06T05:54:40.396Z,99995.13
2023-03-06T05:57:07.852Z,99996.38
2023-03-06T05:59:35.970Z,99992.09
2023-03-06T06:02:05.395Z,99992.25
2023-03-06T06:04:32.881Z,99997.66
2023-03-06T06:07:01.245Z,100001.19
2023-03-06T06:09:29.277Z,100005.47
2023-03-06T06:12:02.425Z,100004.34
2023-03-06T06:14:30.742Z,100003.56
2023-03-06T06:16:58.041Z,99996.09
2023-03-06T06:19:28.038Z,100003.22
2023-03-06T06:21:55.682Z,100010.88
2023-03-06T06:24:25.603Z,100009.59
2023-03-06T06:26:55.626Z,99994.97
2023-03-06T06:29:23.484Z,100001.78
2023-03-06T06:31:52.135Z,99992.81
2023-03-06T06:34:20.720Z,99991.50
2023-03-06T06:36:48.331Z,99993.63
2023-03-06T06:39:20.279Z,100001.75
2023-03-06T06:42:05.620Z,99996.97
2023-03-06T06:44:38.937Z,99995.69
2023-03-06T06:47:22.208Z,99986.09
2023-03-06T06:49:52.775Z,99994.41
2023-03-06T06:52:21.000Z,99991.69
2023-03-06T06:54:48.331Z,99997.59
2023-03-06T06:57:16.332Z,99999.19
2023-03-06T06:59:43.805Z,100007.28
2023-03-06T07:02:12.945Z,100008.28
2023-03-06T07:04:52.343Z,100008.59
2023-03-06T07:07:25.541Z,100009.72
2023-03-06T07:09:54.680Z,100011.97
2023-03-06T07:12:22.122Z,100012.59
2023-03-06T07:14:50.673Z,100017.50
2023-03-06T07:17:18.420Z,100031.88
2023-03-06T07:19:45.859Z,100019.97
2023-03-06T07:22:13.313Z,100019.41
2023-03-06T07:24:40.680Z,100019.16
2023-03-06T07:27:08.080Z,100018.38
2023-03-06T07:29:35.598Z,100019.34
2023-03-06T07:32:03.039Z,100023.16
2023-03-06T07:34:30.404Z,100022.50
2023-03-06T07:36:57.767Z,100015.75
2023-03-06T07:39:25.176Z,100021.31
2023-03-06T07:41:53.476Z,100019.81
2023-03-06T07:44:20.867Z,100022.19
2023-03-06T07:46:48.195Z,100017.44
2023-03-06T07:49:15.994Z,100027.41
2023-03-06T07:51:43.527Z,100020.94
2023-03-06T07:54:10.939Z,100029.88
2023-03-06T07:56:38.313Z,100029.69
2023-03-06T07:59:05.596Z,100025.75
2023-03-06T08:01:33.177Z,100026.22
2023-03-06T08:04:02.028Z,100023.81
2023-03-06T08:06:29.504Z,100032.38
2023-03-06T08:08:57.143Z,100028.59
2023-03-06T08:11:27.089Z,100026.75
2023-03-06T08:13:55.725Z,100032.00
2023-03-06T08:16:25.865Z,100032.72
2023-03-06T08:18:53.764Z,100032.84
2023-03-06T08:21:26.710Z,100034.97
2023-03-06T08:23:56.526Z,100028.28
2023-03-06T08:26:27.226Z,100043.13
2023-03-06T08:28:57.001Z,100046.75
2023-03-06T08:31:35.909Z,100043.50
2023-03-06T08:34:10.932Z,100047.91
2023-03-06T08:36:38.831Z,100045.41
2023-03-06T08:39:06.645Z,100041.22
2023-03-06T08:41:34.337Z,100038.84
2023-03-06T08:44:01.627Z,100033.88
2023-03-06T08:46:32.718Z,100037.03
2023-03-06T08:49:00.385Z,100042.19
2023-03-06T08:51:29.039Z,100041.41
2023-03-06T08:53:57.919Z,100040.38
2023-03-06T08:56:36.088Z,100044.28
2023-03-06T08:59:04.716Z,100044.38
2023-03-06T09:01:35.148Z,100046.78
2023-03-06T09:04:06.322Z,100049.50
2023-03-06T09:06:38.640Z,100043.28
2023-03-06T09:09:06.469Z,100035.28
2023-03-06T09:11:34.201Z,100037.59
2023-03-06T09:14:01.598Z,100043.38
2023-03-06T09:16:29.234Z,100041.16
2023-03-06T09:18:57.836Z,100036.53
2023-03-06T09:21:26.268Z,100033.22
2023-03-06T09:23:53.893Z,100031.88
2023-03-06T09:26:21.413Z,100021.75
2023-03-06T09:28:48.769Z,100024.84
2023-03-06T09:31:18.673Z,100026.59
2023-03-06T09:33:46.794Z,100026.88
2023-03-06T09:36:19.211Z,100026.25
2023-03-06T09:38:48.367Z,100025.50
2023-03-06T09:41:27.956Z,100023.16
2023-03-06T09:44:04.866Z,100027.22
2023-03-06T09:46:59.640Z,100013.91
2023-03-06T09:49:47.456Z,100017.19
2023-03-06T09:52:23.464Z,100008.84
2023-03-06T09:55:02.726Z,100007.31
2023-03-06T09:57:41.789Z,100015.69
2023-03-06T10:00:16.848Z,100016.91
2023-03-06T10:02:45.938Z,100027.63
2023-03-06T10:05:19.828Z,100027.97
2023-03-06T10:08:00.580Z,100020.19
2023-03-06T10:10:47.037Z,100011.53
2023-03-06T10:13:38.209Z,100017.63
2023-03-06T10:16:30.426Z,100023.28
2023-03-06T10:19:04.515Z,100017.59
2023-03-06T10:21:50.396Z,100017.34
2023-03-06T10:24:35.142Z,100020.63
2023-03-06T10:27:31.593Z,100015.31
2023-03-06T10:30:11.326Z,100014.38
2023-03-06T10:32:51.199Z,100002.03
2023-03-06T10:35:22.183Z,99999.97
2023-03-06T10:37:51.956Z,100011.31
2023-03-06T10:40:21.903Z,100006.94
2023-03-06T10:42:56.018Z,100003.59
2023-03-06T10:45:33.076Z,100005.78
2023-03-06T10:48:14.629Z,99999.44
2023-03-06T10:50:41.980Z,99990.94
2023-03-06T10:53:23.411Z,99995.34
2023-03-06T10:56:01.384Z,99984.22
2023-03-06T10:58:32.932Z,99983.53
2023-03-06T11:01:09.297Z,99983.69
2023-03-06T11:03:37.479Z,99984.56
2023-03-06T11:06:13.096Z,99983.69
2023-03-06T11:08:43.308Z,99974.44
2023-03-06T11:11:36.401Z,99971.03
2023-03-06T11:14:15.270Z,99971.13
2023-03-06T11:16:53.011Z,99966.84
2023-03-06T11:19:28.009Z,99969.75
2023-03-06T11:22:06.030Z,99968.78
2023-03-06T11:24:40.606Z,99961.06
2023-03-06T11:27:19.237Z,99966.00
2023-03-06T11:29:50.465Z,99955.00
2023-03-06T11:32:39.372Z,99957.03
2023-03-06T11:35:12.718Z,99963.53
2023-03-06T11:38:07.765Z,99950.38
2023-03-06T11:40:49.818Z,99949.28
2023-03-06T11:43:44.986Z,99944.16
2023-03-06T11:46:30.736Z,99947.97
2023-03-06T11:49:12.976Z,99947.34
2023-03-06T11:51:46.410Z,99941.19
2023-03-06T11:54:14.229Z,99936.31
2023-03-06T11:56:55.417Z,99930.00
2023-03-06T11:59:37.386Z,99929.19
2023-03-06T12:02:21.923Z,99918.19
2023-03-06T12:05:01.380Z,99919.13
2023-03-06T12:07:58.012Z,99912.41
2023-03-06T12:10:51.871Z,99903.81
2023-03-06T12:16:11.083Z,99904.28
2023-03-06T12:19:15.981Z,99888.63
2023-03-06T12:21:47.261Z,99889.13
2023-03-06T12:24:32.208Z,99880.91
2023-03-06T12:27:08.208Z,99872.44
2023-03-06T12:29:47.727Z,99870.78
2023-03-06T12:32:38.397Z,99856.00
2023-03-06T12:35:28.060Z,99861.75
2023-03-06T12:38:04.377Z,99852.06
2023-03-06T12:40:59.353Z,99861.72
2023-03-06T12:43:39.926Z,99852.84
2023-03-06T12:46:25.333Z,99851.28
2023-03-06T12:49:08.890Z,99845.72
2023-03-06T12:51:37.619Z,99848.22
2023-03-06T12:54:11.326Z,99840.44
2023-03-06T12:56:39.821Z,99832.69
2023-03-06T12:59:47.914Z,99832.31
2023-03-06T13:02:24.480Z,99833.78
2023-03-06T13:05:14.614Z,99832.25
2023-03-06T13:08:12.704Z,99819.06
2023-03-06T13:10:42.337Z,99823.59
2023-03-06T13:13:34.217Z,99813.34
2023-03-06T13:16:15.944Z,99819.72
2023-03-06T13:18:43.276Z,99813.16
2023-03-06T13:22:00.268Z,99805.22
2023-03-06T13:24:33.270Z,99802.50
2023-03-06T13:27:12.079Z,99796.28
2023-03-06T13:29:39.368Z,99796.22
2023-03-06T13:32:15.932Z,99791.63
2023-03-06T13:34:52.498Z,99790.09
2023-03-06T13:37:20.166Z,99788.22
2023-03-06T13:39:59.585Z,99788.31
2023-03-06T13:42:37.425Z,99779.28
2023-03-06T13:45:23.931Z,99787.44
2023-03-06T13:48:22.616Z,99783.16
2023-03-06T13:50:46.242Z,99775.84
2023-03-06T13:53:25.348Z,99775.59
2023-03-06T13:56:10.008Z,99769.25
2023-03-06T13:58:53.434Z,99770.44
2023-03-06T14:01:44.942Z,99765.69
2023-03-06T14:04:38.051Z,99758.63
2023-03-06T14:07:11.184Z,99757.81
2023-03-06T14:09:43.580Z,99752.59
2023-03-06T14:12:27.874Z,99747.31
2023-03-06T14:14:58.748Z,99742.16
2023-03-06T14:17:34.831Z,99749.13
2023-03-06T14:20:18.224Z,99749.78
2023-03-06T14:22:45.707Z,99736.88
2023-03-06T14:25:13.032Z,99742.69
2023-03-06T14:27:58.173Z,99733.66
2023-03-06T14:30:28.068Z,99737.09
2023-03-06T14:32:58.419Z,99732.50
2023-03-06T14:35:32.128Z,99731.78
2023-03-06T14:38:02.810Z,99721.28
2023-03-06T14:40:34.700Z,99726.00
2023-03-06T14:43:12.360Z,99716.03
2023-03-06T14:46:14.959Z,99723.41
2023-03-06T14:48:45.821Z,99723.94
2023-03-06T14:51:21.012Z,99723.56
2023-03-06T14:53:50.693Z,99722.38
2023-03-06T14:56:21.248Z,99724.81
2023-03-06T14:58:56.865Z,99720.53
2023-03-06T15:01:40.894Z,99723.28
2023-03-06T15:04:45.744Z,99719.19
2023-03-06T15:07:17.709Z,99717.47
2023-03-06T15:09:49.473Z,99715.28
2023-03-06T15:12:22.785Z,99720.19
2023-03-06T15:15:09.571Z,99710.34
2023-03-06T15:17:41.709Z,99722.97
2023-03-06T15:21:00.289Z,99718.13
2023-03-06T15:23:40.177Z,99700.34
2023-03-06T15:26:31.929Z,99706.13
2023-03-06T15:29:11.293Z,99703.44
2023-03-06T15:31:44.045Z,99701.75
2023-03-06T15:34:11.478Z,99696.75
2023-03-06T15:36:42.786Z,99700.13
2023-03-06T15:39:28.160Z,99705.38
2023-03-06T15:42:00.774Z,99708.91
2023-03-06T15:44:31.693Z,99708.97
2023-03-06T15:47:08.548Z,99703.28
2023-03-06T15:49:38.138Z,99704.47
2023-03-06T15:52:09.433Z,99702.41
2023-03-06T15:54:37.127Z,99692.22
2023-03-06T15:57:06.087Z,99692.31
2023-03-06T15:59:41.453Z,99687.84
2023-03-06T16:02:17.985Z,99694.03
2023-03-06T16:04:46.110Z,99687.84
2023-03-06T16:07:14.254Z,99690.41
2023-03-06T16:09:42.880Z,99691.97
2023-03-06T16:12:30.743Z,99702.03
2023-03-06T16:15:01.202Z,99693.53
2023-03-06T16:17:28.483Z,99696.78
2023-03-06T16:19:55.869Z,99695.53
2023-03-06T16:22:23.242Z,99699.41
2023-03-06T16:24:50.925Z,99693.13
2023-03-06T16:27:19.811Z,99693.69
2023-03-06T16:29:47.232Z,99703.66
2023-03-06T16:32:14.499Z,99694.03
2023-03-06T16:34:41.942Z,99690.06
2023-03-06T16:37:12.749Z,99693.34
2023-03-06T16:39:40.172Z,99693.97
2023-03-06T16:42:07.487Z,99701.41
2023-03-06T16:44:34.830Z,99696.63
2023-03-06T16:47:02.111Z,99690.78
2023-03-06T16:49:29.544Z,99706.13
2023-03-06T16:51:56.908Z,99699.34
2023-03-06T16:54:26.161Z,99700.88
2023-03-06T16:56:53.491Z,99695.78
2023-03-06T16:59:21.042Z,99700.88
2023-03-06T17:01:48.378Z,99689.50
2023-03-06T17:04:15.769Z,99705.75
2023-03-06T17:06:43.346Z,99697.38
2023-03-06T17:09:11.074Z,99704.63
2023-03-06T17:11:38.758Z,99700.47
2023-03-06T17:14:06.978Z,99701.91
2023-03-06T17:16:36.521Z,99705.66
2023-03-06T17:19:03.933Z,99702.56
2023-03-06T17:21:31.644Z,99702.44
2023-03-06T17:24:01.649Z,99707.38
2023-03-06T17:26:29.292Z,99700.69
2023-03-06T17:28:56.778Z,99702.84
2023-03-06T17:31:26.798Z,99714.81
2023-03-06T17:33:59.114Z,99718.97
2023-03-06T17:36:27.835Z,99717.31
2023-03-06T17:38:56.927Z,99722.34
2023-03-06T17:41:25.040Z,99730.59
2023-03-06T17:43:55.270Z,99730.00
2023-03-06T17:46:22.694Z,99728.69
2023-03-06T17:48:50.280Z,99731.41
2023-03-06T17:51:17.634Z,99738.28
2023-03-06T17:53:45.001Z,99728.91
2023-03-06T17:56:14.331Z,99738.19
2023-03-06T17:58:41.733Z,99739.34
2023-03-06T18:01:29.953Z,99739.34
2023-03-06T18:03:57.669Z,99728.19
2023-03-06T18:06:27.566Z,99738.44
2023-03-06T18:08:54.936Z,99741.91
2023-03-06T18:11:22.802Z,99731.34
2023-03-06T18:13:50.610Z,99732.31
2023-03-06T18:16:20.992Z,99741.00
2023-03-06T18:18:51.693Z,99740.22
2023-03-06T18:21:19.929Z,99744.00
2023-03-06T18:23:47.421Z,99744.38
2023-03-06T18:26:18.597Z,99742.69
2023-03-06T18:28:48.063Z,99743.03
2023-03-06T18:31:24.606Z,99745.41
2023-03-06T18:33:53.360Z,99746.19
2023-03-06T18:36:22.873Z,99750.06
2023-03-06T18:38:50.510Z,99749.63
2023-03-06T18:41:19.229Z,99742.34
2023-03-06T18:43:55.127Z,99745.41
2023-03-06T18:46:23.736Z,99748.47
2023-03-06T18:48:51.276Z,99752.25
2023-03-06T18:51:20.128Z,99751.41
2023-03-06T18:53:47.766Z,99747.31
2023-03-06T18:56:22.340Z,99750.06
2023-03-06T18:58:50.466Z,99746.78
2023-03-06T19:01:18.475Z,99753.13
2023-03-06T19:03:49.179Z,99752.09
2023-03-06T19:06:17.330Z,99758.44
2023-03-06T19:08:45.192Z,99759.63
2023-03-06T19:11:15.153Z,99759.63
2023-03-06T19:13:43.033Z,99755.44
2023-03-06T19:16:17.750Z,99750.34
2023-03-06T19:18:45.072Z,99762.72
2023-03-06T19:21:20.972Z,99756.06
2023-03-06T19:23:49.101Z,99756.31
2023-03-06T19:26:18.719Z,99759.38
2023-03-06T19:28:47.006Z,99756.31
2023-03-06T19:31:20.449Z,99757.78
2023-03-06T19:33:49.229Z,99756.13
2023-03-06T19:36:19.291Z,99756.38
2023-03-06T19:38:52.446Z,99751.97
2023-03-06T19:41:19.714Z,99750.50
2023-03-06T19:43:53.846Z,99751.97
2023-03-06T19:46:22.112Z,99747.25
2023-03-06T19:48:55.062Z,99748.38
2023-03-06T19:51:22.526Z,99749.50
2023-03-06T19:53:49.906Z,99752.13
2023-03-06T19:56:29.080Z,99751.19
2023-03-06T19:58:56.970Z,99748.47
2023-03-06T20:01:26.612Z,99745.06
2023-03-06T20:03:59.461Z,99744.53
2023-03-06T20:06:29.253Z,99741.22
2023-03-06T20:08:57.257Z,99750.56
2023-03-06T20:11:29.841Z,99746.94
2023-03-06T20:13:59.684Z,99745.63
2023-03-06T20:16:28.196Z,99745.63
2023-03-06T20:18:58.758Z,99741.13
2023-03-06T20:21:31.348Z,99743.94
2023-03-06T20:23:59.335Z,99742.25
2023-03-06T20:26:28.826Z,99742.97
2023-03-06T20:28:57.132Z,99750.13
2023-03-06T20:31:26.779Z,99752.41
2023-03-06T20:33:57.047Z,99751.09
2023-03-06T20:36:28.889Z,99752.44
2023-03-06T20:38:59.022Z,99756.91
2023-03-06T20:41:28.743Z,99766.47
2023-03-06T20:43:58.227Z,99760.84
2023-03-06T20:46:26.227Z,99762.78
2023-03-06T20:48:54.369Z,99760.06
2023-03-06T20:51:28.588Z,99760.72
2023-03-06T20:53:57.538Z,99754.16
2023-03-06T20:56:27.884Z,99754.69
2023-03-06T20:58:55.647Z,99765.25
2023-03-06T21:01:31.634Z,99756.53
2023-03-06T21:04:00.144Z,99762.31
2023-03-06T21:06:30.864Z,99764.00
2023-03-06T21:08:59.595Z,99763.63
2023-03-06T21:11:27.962Z,99766.47
2023-03-06T21:13:56.001Z,99764.31
2023-03-06T21:16:25.638Z,99766.00
2023-03-06T21:18:58.029Z,99770.78
2023-03-06T21:21:29.801Z,99773.09
2023-03-06T21:23:57.682Z,99770.63
2023-03-06T21:26:27.346Z,99775.47
2023-03-06T21:28:57.167Z,99774.88
2023-03-06T21:31:25.228Z,99774.44
2023-03-06T21:33:52.600Z,99773.09
2023-03-06T21:36:21.788Z,99776.97
2023-03-06T21:38:50.185Z,99771.28
2023-03-06T21:41:28.615Z,99773.31
2023-03-06T21:43:57.309Z,99770.50
2023-03-06T21:46:25.579Z,99773.22
2023-03-06T21:48:53.506Z,99771.28
2023-03-06T21:51:23.460Z,99770.69
2023-03-06T21:53:52.717Z,99771.91
2023-03-06T21:56:23.849Z,99774.03
2023-03-06T21:58:51.552Z,99769.97
2023-03-06T22:01:22.800Z,99776.09
2023-03-06T22:03:50.717Z,99780.19
2023-03-06T22:06:22.815Z,99779.63
2023-03-06T22:08:50.240Z,99778.38
2023-03-06T22:11:19.691Z,99775.53
2023-03-06T22:13:50.598Z,99776.63
2023-03-06T22:16:18.359Z,99781.28
2023-03-06T22:18:47.389Z,99778.09
2023-03-06T22:21:16.592Z,99776.53
2023-03-06T22:23:44.323Z,99775.84
2023-03-06T22:26:14.263Z,99772.81
2023-03-06T22:28:42.090Z,99760.91
2023-03-06T22:31:13.672Z,99770.59
2023-03-06T22:33:44.302Z,99768.97
2023-03-06T22:36:14.412Z,99773.34
2023-03-06T22:38:43.764Z,99778.00
2023-03-06T22:41:12.674Z,99783.75
2023-03-06T22:43:40.282Z,99784.09
2023-03-06T22:46:10.731Z,99783.91
2023-03-06T22:48:38.119Z,99789.72
2023-03-06T22:51:17.171Z,99787.50
2023-03-06T22:53:45.081Z,99786.06
2023-03-06T22:56:15.332Z,99784.34
2023-03-06T22:58:44.812Z,99779.13
2023-03-06T23:01:18.442Z,99777.69
2023-03-06T23:03:54.236Z,99780.50
2023-03-06T23:06:25.030Z,99777.41
2023-03-06T23:09:00.900Z,99782.16
2023-03-06T23:11:29.201Z,99787.66
2023-03-06T23:14:17.157Z,99789.38
2023-03-06T23:17:03.530Z,99794.47
2023-03-06T23:19:53.125Z,99797.31
2023-03-06T23:22:39.103Z,99799.38
2023-03-06T23:25:24.888Z,99798.38
2023-03-06T23:27:52.283Z,99803.03
2023-03-06T23:30:19.726Z,99803.13
2023-03-06T23:32:47.007Z,99808.06
2023-03-06T23:35:14.561Z,99810.09
2023-03-06T23:37:42.134Z,99802.41
2023-03-06T23:40:10.246Z,99800.59
2023-03-06T23:42:38.269Z,99807.97
2023-03-06T23:45:07.302Z,99809.09
2023-03-06T23:47:34.957Z,99808.22
2023-03-06T23:50:02.429Z,99808.16
2023-03-06T23:52:29.755Z,99795.84
2023-03-06T23:54:57.149Z,99799.50
2023-03-06T23:57:26.888Z,99800.97
2023-03-06T23:59:54.221Z,99804.22
